Parker Dam, California
Current Conditions -  °F | °C
As of 1:15 AM on Monday 24 Nov 2014 (Local Time) from KHII Reporting Station
Clear Clear  
Wind Chill: 14°   Ceiling: Unl
Heat Index: 14°   Visibility: 10mi
Dew Point: -13°   Wind: 7mph
Humidity: 14%   Direction: 10°N
Pressure: 30.21"   Gusts: NA
Location:  34.29°N, 114.14°W
Report Text: KHII 240915Z AUTO 01006KT 10SM CLR 14/M13 A3021 RMK AO2
Loading
Personal Weather Stations






























Interactive Weather Map New forecast layout! Learn more

10-Day Weather Forecast

Advertisements
Track Severe Weather on mobile